Time;durP1;ratioP1;P1;durP2;ratioP2;P2;SDS_P1;SDS_P2;PMS_P1;PMS_P2;Temp;Humidity;BMP_temperature;BMP_pressure;BME280_temperature;BME280_humidity;BME280_pressure;Samples;Min_cycle;Max_cycle;Signal;HPM_P1;HPM_P2
2023/07/21 00:01:43;;;;;;;0.50;0.30;;;;;;;19.93;73.15;99761.50;5053640;28;20564;-54
2023/07/21 00:04:09;;;;;;;0.50;0.20;;;;;;;19.92;72.79;99759.78;5041084;28;20459;-54
2023/07/21 00:06:36;;;;;;;0.50;0.20;;;;;;;19.91;72.82;99753.53;5010319;28;20450;-55
2023/07/21 00:09:06;;;;;;;0.50;0.20;;;;;;;19.74;73.83;99752.13;5040780;28;20447;-54
2023/07/21 00:11:32;;;;;;;0.50;0.20;;;;;;;19.61;74.14;99751.31;5046852;28;20521;-54
2023/07/21 00:13:59;;;;;;;0.50;0.20;;;;;;;19.68;73.73;99763.34;5047496;28;20504;-54
2023/07/21 00:16:27;;;;;;;0.50;0.20;;;;;;;19.74;73.80;99753.97;5042077;28;20496;-55
2023/07/21 00:18:55;;;;;;;0.50;0.20;;;;;;;19.75;73.70;99763.78;5040551;28;20509;-54
2023/07/21 00:21:22;;;;;;;0.50;0.20;;;;;;;19.76;74.37;99750.16;5045339;28;20492;-55
2023/07/21 00:23:49;;;;;;;0.60;0.60;;;;;;;19.61;74.58;99747.75;5046819;28;20955;-54
2023/07/21 00:26:16;;;;;;;0.60;0.60;;;;;;;19.36;76.04;99749.53;5037087;28;21200;-54
2023/07/21 00:28:43;;;;;;;0.50;0.30;;;;;;;19.35;76.41;99739.72;5029985;28;20444;-54
2023/07/21 00:31:10;;;;;;;0.50;0.20;;;;;;;19.44;75.90;99740.88;5044657;28;20467;-54
2023/07/21 00:33:37;;;;;;;0.50;0.20;;;;;;;19.55;74.59;99724.78;5047361;28;20542;-55
2023/07/21 00:36:04;;;;;;;0.50;0.20;;;;;;;19.86;73.30;99734.13;5043258;28;20931;-55
2023/07/21 00:38:31;;;;;;;0.50;0.20;;;;;;;19.61;74.04;99734.28;5040198;28;20470;-54
2023/07/21 00:40:57;;;;;;;0.50;0.20;;;;;;;19.68;73.71;99735.53;5043720;28;20527;-55
2023/07/21 00:43:25;;;;;;;0.50;0.20;;;;;;;19.69;74.70;99738.09;5047072;28;20550;-55
2023/07/21 00:45:52;;;;;;;0.50;0.20;;;;;;;19.69;75.28;99740.81;5025885;28;20493;-55
2023/07/21 00:48:19;;;;;;;0.50;0.20;;;;;;;19.68;75.24;99735.53;5039896;28;20451;-55
2023/07/21 00:50:48;;;;;;;0.50;0.20;;;;;;;19.66;74.96;99738.34;5043137;28;20558;-54
2023/07/21 00:53:15;;;;;;;0.50;0.20;;;;;;;19.63;74.77;99732.31;5046552;28;20945;-54
2023/07/21 00:55:42;;;;;;;0.50;0.20;;;;;;;19.57;75.79;99740.84;5039996;28;20546;-54
2023/07/21 00:58:11;;;;;;;0.50;0.20;;;;;;;19.56;75.08;99731.91;5030149;28;20479;-54
2023/07/21 01:00:41;;;;;;;0.50;0.20;;;;;;;19.48;75.70;99735.16;5040115;28;20604;-54
2023/07/21 01:03:09;;;;;;;0.50;0.20;;;;;;;19.50;76.01;99738.59;5047893;28;20969;-54
2023/07/21 01:05:41;;;;;;;0.50;0.30;;;;;;;19.39;76.37;99737.66;5040957;28;20963;-54
2023/07/21 01:08:09;;;;;;;0.50;0.20;;;;;;;19.51;75.90;99728.66;5039802;28;20942;-54
2023/07/21 01:10:38;;;;;;;0.50;0.20;;;;;;;19.56;75.44;99720.25;5044375;28;20525;-54
2023/07/21 01:13:06;;;;;;;0.50;0.20;;;;;;;19.75;74.56;99721.47;5046276;28;20451;-54
2023/07/21 01:15:37;;;;;;;0.50;0.20;;;;;;;19.79;74.28;99722.09;5042431;28;20538;-55
2023/07/21 01:18:04;;;;;;;0.50;0.20;;;;;;;19.60;74.72;99717.25;5040060;28;20533;-54
2023/07/21 01:20:32;;;;;;;0.50;0.20;;;;;;;19.33;76.25;99711.19;5042324;28;20474;-54
2023/07/21 01:23:20;;;;;;;0.50;0.20;;;;;;;19.22;77.47;99707.44;5046270;28;20479;-54
2023/07/21 01:25:48;;;;;;;0.50;0.20;;;;;;;19.14;77.97;99706.25;5046194;28;20447;-54
2023/07/21 01:28:16;;;;;;;0.50;0.20;;;;;;;19.22;77.58;99706.56;5039817;28;20526;-54
2023/07/21 01:30:45;;;;;;;0.50;0.20;;;;;;;19.42;77.14;99713.16;5038934;28;20620;-55
2023/07/21 01:33:14;;;;;;;0.50;0.20;;;;;;;19.52;76.60;99706.13;5045077;28;20877;-55
2023/07/21 01:35:42;;;;;;;0.50;0.20;;;;;;;19.51;76.53;99707.09;5045817;28;20450;-54
2023/07/21 01:38:10;;;;;;;0.50;0.20;;;;;;;19.56;75.69;99699.56;5040774;28;20493;-54
2023/07/21 01:40:39;;;;;;;0.50;0.20;;;;;;;19.70;75.10;99710.16;5038585;28;20582;-55
2023/07/21 01:43:05;;;;;;;0.50;0.20;;;;;;;19.69;75.47;99707.56;5043917;28;20451;-55
2023/07/21 01:45:33;;;;;;;0.50;0.20;;;;;;;19.63;75.77;99706.22;5045792;28;20980;-54
2023/07/21 01:48:00;;;;;;;0.50;0.20;;;;;;;19.58;76.01;99711.06;5041490;28;20538;-54
2023/07/21 01:50:29;;;;;;;0.50;0.20;;;;;;;19.53;76.45;99702.44;5038744;28;20602;-54
2023/07/21 01:52:58;;;;;;;0.50;0.20;;;;;;;19.70;75.08;99704.75;5042847;28;20534;-54
2023/07/21 01:55:34;;;;;;;0.50;0.20;;;;;;;20.28;72.83;99704.81;5035830;28;20534;-54
2023/07/21 01:58:05;;;;;;;0.50;0.20;;;;;;;20.32;72.20;99696.38;5029871;28;20537;-55
2023/07/21 02:00:34;;;;;;;0.50;0.20;;;;;;;20.24;72.01;99688.00;5045597;28;20467;-55
2023/07/21 02:03:16;;;;;;;0.50;0.30;;;;;;;20.31;72.00;99693.81;5028688;28;20479;-55
2023/07/21 02:05:43;;;;;;;0.50;0.20;;;;;;;20.13;72.62;99694.22;5043628;28;20605;-54
2023/07/21 02:08:10;;;;;;;0.50;0.20;;;;;;;20.16;72.56;99695.84;5045614;28;20451;-54
2023/07/21 02:10:36;;;;;;;0.50;0.20;;;;;;;20.03;73.36;99695.09;5040558;28;20505;-55
2023/07/21 02:13:04;;;;;;;0.50;0.20;;;;;;;19.80;74.47;99695.00;5038503;28;20483;-54
2023/07/21 02:15:31;;;;;;;0.50;0.20;;;;;;;19.76;75.21;99698.91;5043088;28;20547;-54
2023/07/21 02:17:57;;;;;;;0.50;0.20;;;;;;;19.67;75.46;99699.59;5027607;28;20997;-54
2023/07/21 02:20:24;;;;;;;0.50;0.20;;;;;;;19.59;76.01;99698.44;5040923;28;20479;-54
2023/07/21 02:22:51;;;;;;;0.50;0.20;;;;;;;19.73;75.54;99691.03;5038216;28;20498;-54
2023/07/21 02:25:17;;;;;;;0.50;0.20;;;;;;;19.56;75.89;99688.75;5042762;28;21027;-54
2023/07/21 02:27:44;;;;;;;0.50;0.20;;;;;;;19.68;75.69;99684.28;5020395;28;20867;-54
2023/07/21 02:30:11;;;;;;;0.50;0.20;;;;;;;19.68;75.97;99685.16;5041434;28;20470;-55
2023/07/21 02:32:37;;;;;;;0.50;0.20;;;;;;;19.49;77.29;99679.41;5038275;28;20870;-55
2023/07/21 02:35:05;;;;;;;0.50;0.20;;;;;;;19.52;77.24;99687.25;5032659;28;20473;-54
2023/07/21 02:37:32;;;;;;;0.50;0.20;;;;;;;20.01;74.67;99678.13;5014280;28;20473;-55
2023/07/21 02:39:59;;;;;;;0.50;0.20;;;;;;;19.94;74.19;99679.59;5042244;28;20480;-52
2023/07/21 02:42:25;;;;;;;0.50;0.20;;;;;;;20.07;73.78;99678.53;5045061;28;20491;-52
2023/07/21 02:44:52;;;;;;;0.50;0.20;;;;;;;20.05;74.30;99679.63;5041806;28;20457;-52
2023/07/21 02:47:18;;;;;;;0.50;0.20;;;;;;;20.10;73.53;99678.28;5039807;28;20529;-53
2023/07/21 02:49:45;;;;;;;0.50;0.20;;;;;;;20.09;73.19;99673.00;5045750;28;20479;-51
2023/07/21 02:52:12;;;;;;;0.50;0.20;;;;;;;19.91;73.66;99674.44;5049304;28;20530;-53
2023/07/21 02:54:38;;;;;;;0.50;0.20;;;;;;;19.97;73.18;99673.97;5035537;28;20811;-51
2023/07/21 02:57:07;;;;;;;0.50;0.20;;;;;;;20.11;72.93;99666.50;5038082;28;20929;-51
2023/07/21 02:59:34;;;;;;;0.50;0.20;;;;;;;20.00;73.34;99665.63;5046581;28;20545;-52
2023/07/21 03:02:01;;;;;;;0.50;0.20;;;;;;;20.13;73.72;99671.78;5032200;28;20530;-52
2023/07/21 03:04:28;;;;;;;0.50;0.20;;;;;;;19.88;74.08;99670.16;5046817;28;20497;-52
2023/07/21 03:06:55;;;;;;;0.50;0.20;;;;;;;19.81;74.53;99669.75;5042028;28;20541;-52
2023/07/21 03:09:22;;;;;;;0.50;0.20;;;;;;;19.50;76.38;99673.88;5043801;28;20483;-52
2023/07/21 03:11:48;;;;;;;3.23;2.93;;;;;;;19.34;77.48;99675.16;5048525;28;20479;-52
2023/07/21 03:14:14;;;;;;;0.40;0.20;;;;;;;19.39;77.55;99664.88;5046729;28;20478;-52
2023/07/21 03:16:41;;;;;;;0.50;0.20;;;;;;;19.27;78.52;99655.88;5041881;28;20962;-52
2023/07/21 03:19:08;;;;;;;0.50;0.20;;;;;;;19.35;78.45;99668.78;5043823;28;20491;-52
2023/07/21 03:21:34;;;;;;;0.50;0.20;;;;;;;19.26;78.84;99664.09;5048358;28;20491;-51
2023/07/21 03:24:01;;;;;;;0.50;0.20;;;;;;;18.84;80.06;99671.66;5046457;28;20853;-51
2023/07/21 03:26:27;;;;;;;0.50;0.20;;;;;;;19.03;79.88;99679.25;5032650;28;21036;-51
2023/07/21 03:28:57;;;;;;;0.50;0.20;;;;;;;19.19;79.64;99666.38;5026650;28;20452;-51
2023/07/21 03:31:23;;;;;;;0.50;0.20;;;;;;;19.27;79.26;99665.81;5048334;28;20494;-52
2023/07/21 03:33:50;;;;;;;0.50;0.20;;;;;;;19.29;78.82;99672.78;5047272;28;20543;-52
2023/07/21 03:36:19;;;;;;;0.50;0.20;;;;;;;19.40;78.81;99672.00;5041299;28;20543;-51
2023/07/21 03:38:46;;;;;;;0.50;0.20;;;;;;;19.20;79.63;99673.50;5042162;28;20451;-52
2023/07/21 03:41:13;;;;;;;0.50;0.20;;;;;;;19.00;80.50;99674.94;5047902;28;20992;-52
2023/07/21 03:43:39;;;;;;;0.50;0.20;;;;;;;18.98;80.70;99665.25;5047367;28;20538;-52
2023/07/21 03:46:07;;;;;;;0.50;0.30;;;;;;;18.94;81.54;99670.03;5041313;28;20486;-52
2023/07/21 03:48:33;;;;;;;0.50;0.20;;;;;;;18.80;81.89;99667.47;5041440;28;20444;-52
2023/07/21 03:51:03;;;;;;;0.50;0.20;;;;;;;18.80;82.32;99667.47;5027951;28;20540;-51
2023/07/21 03:53:29;;;;;;;0.50;0.20;;;;;;;18.76;82.12;99668.63;5040472;28;20483;-52
2023/07/21 03:56:04;;;;;;;0.50;0.20;;;;;;;18.61;83.32;99667.88;5041596;28;20446;-51
2023/07/21 03:58:30;;;;;;;0.50;0.20;;;;;;;18.61;82.97;99667.88;5032621;28;21545;-52
2023/07/21 04:00:59;;;;;;;0.50;0.20;;;;;;;18.68;82.51;99668.34;5044237;28;20483;-51
2023/07/21 04:03:26;;;;;;;0.50;0.20;;;;;;;18.74;83.33;99674.13;5034473;28;20864;-52
2023/07/21 04:05:53;;;;;;;0.50;0.20;;;;;;;18.57;83.80;99659.19;5044297;28;20448;-52
2023/07/21 04:08:19;;;;;;;0.50;0.20;;;;;;;18.32;84.68;99659.19;5047801;28;20479;-51
2023/07/21 04:10:46;;;;;;;0.50;0.20;;;;;;;18.33;85.09;99651.00;5044073;28;20467;-52
2023/07/21 04:13:12;;;;;;;0.50;0.20;;;;;;;18.33;85.32;99659.09;5040723;28;20451;-52
2023/07/21 04:15:40;;;;;;;0.50;0.20;;;;;;;18.25;85.60;99658.78;5043796;28;20534;-52
2023/07/21 04:18:06;;;;;;;0.50;0.20;;;;;;;18.39;85.43;99652.44;5047515;28;20447;-51
2023/07/21 04:20:33;;;;;;;0.50;0.20;;;;;;;18.58;84.96;99649.25;5044905;28;20532;-52
2023/07/21 04:23:00;;;;;;;0.50;0.20;;;;;;;18.69;83.99;99645.84;5040518;28;20589;-52
2023/07/21 04:25:26;;;;;;;0.50;0.20;;;;;;;18.79;83.83;99646.91;5043043;28;20490;-52
2023/07/21 04:27:54;;;;;;;0.50;0.20;;;;;;;18.79;83.30;99645.06;5024577;28;20831;-52
2023/07/21 04:30:22;;;;;;;0.47;0.20;;;;;;;18.73;82.98;99644.63;5045620;28;20810;-52
2023/07/21 04:32:50;;;;;;;0.50;0.20;;;;;;;18.70;83.79;99645.72;5040361;28;20450;-52
2023/07/21 04:35:16;;;;;;;0.50;0.20;;;;;;;18.70;83.68;99647.56;5041714;28;20535;-52
2023/07/21 04:37:43;;;;;;;0.50;0.20;;;;;;;18.64;83.92;99644.34;5046626;28;20460;-51
2023/07/21 04:40:11;;;;;;;0.50;0.20;;;;;;;18.58;83.55;99646.56;5045952;28;20556;-51
2023/07/21 04:42:39;;;;;;;0.50;0.20;;;;;;;18.45;84.22;99641.22;5040117;28;20486;-52
2023/07/21 04:45:11;;;;;;;0.50;0.20;;;;;;;18.64;83.89;99644.34;5040979;28;20456;-51
2023/07/21 04:47:39;;;;;;;0.50;0.20;;;;;;;19.02;82.86;99646.06;5040348;28;20530;-51
2023/07/21 04:50:07;;;;;;;0.50;0.20;;;;;;;19.46;80.92;99664.31;5039856;28;20476;-53
2023/07/21 04:52:36;;;;;;;0.50;0.20;;;;;;;19.75;79.28;99658.59;5046138;28;20535;-52
2023/07/21 04:55:05;;;;;;;0.50;0.20;;;;;;;19.78;79.33;99661.91;5034812;28;20447;-52
2023/07/21 04:57:34;;;;;;;0.50;0.20;;;;;;;19.94;79.00;99666.09;5035034;28;20459;-52
2023/07/21 05:00:01;;;;;;;0.40;0.20;;;;;;;19.50;80.84;99673.03;5046609;28;20467;-51
2023/07/21 05:02:28;;;;;;;0.50;0.20;;;;;;;19.43;81.25;99677.16;5028701;28;20927;-51
2023/07/21 05:04:59;;;;;;;0.50;0.20;;;;;;;19.40;80.97;99678.25;5046354;28;20475;-51
2023/07/21 05:07:25;;;;;;;0.50;0.30;;;;;;;19.93;79.73;99675.19;5042630;28;20455;-52
2023/07/21 05:09:55;;;;;;;4.30;1.07;;;;;;;20.00;79.69;99679.13;5039455;28;20835;-51
2023/07/21 05:12:25;;;;;;;0.50;0.20;;;;;;;19.92;80.45;99684.25;5043082;28;20459;-51
2023/07/21 05:14:52;;;;;;;0.50;0.20;;;;;;;19.70;80.89;99680.50;5046103;28;20508;-51
2023/07/21 05:17:19;;;;;;;0.67;0.67;;;;;;;19.68;80.78;99679.75;5043302;28;20940;-51
2023/07/21 05:19:45;;;;;;;0.50;0.30;;;;;;;19.75;80.87;99680.16;5039640;28;20543;-51
2023/07/21 05:22:13;;;;;;;0.50;0.20;;;;;;;19.63;81.20;99689.19;5041926;28;20581;-51
2023/07/21 05:24:42;;;;;;;0.50;0.20;;;;;;;19.54;81.95;99682.59;5045942;28;20953;-51
2023/07/21 05:27:10;;;;;;;0.50;0.20;;;;;;;19.38;82.42;99690.97;5023947;28;20452;-51
2023/07/21 05:29:36;;;;;;;0.43;0.20;;;;;;;19.43;82.49;99688.78;5036110;28;20451;-52
2023/07/21 05:32:05;;;;;;;0.50;0.20;;;;;;;19.61;82.13;99686.59;5040649;28;20456;-51
2023/07/21 05:34:32;;;;;;;0.43;0.20;;;;;;;19.61;82.01;99691.13;5046052;28;20483;-51
2023/07/21 05:37:00;;;;;;;0.50;0.20;;;;;;;19.68;81.65;99690.53;5045039;28;20451;-51
2023/07/21 05:39:29;;;;;;;0.50;0.20;;;;;;;19.71;80.31;99684.91;5038789;28;20446;-51
2023/07/21 05:41:57;;;;;;;0.50;0.20;;;;;;;19.59;80.39;99685.84;5039221;28;20912;-52
2023/07/21 05:44:26;;;;;;;0.50;0.20;;;;;;;19.56;80.63;99691.47;5026210;28;20451;-51
2023/07/21 05:46:52;;;;;;;0.50;0.20;;;;;;;19.61;80.48;99685.75;5039063;28;20463;-51
2023/07/21 05:49:19;;;;;;;0.50;0.20;;;;;;;19.69;80.09;99684.16;5044775;28;20459;-51
2023/07/21 05:51:48;;;;;;;0.50;0.20;;;;;;;19.97;79.20;99682.06;5045493;28;20555;-51
2023/07/21 05:54:14;;;;;;;0.50;0.20;;;;;;;20.07;77.46;99680.38;5032445;28;20876;-51
2023/07/21 05:56:41;;;;;;;0.47;0.20;;;;;;;19.99;77.98;99680.94;5035251;28;20518;-51
2023/07/21 05:59:07;;;;;;;0.50;0.20;;;;;;;19.98;78.47;99684.63;5040003;28;20474;-51
2023/07/21 06:01:37;;;;;;;0.47;0.20;;;;;;;20.04;78.80;99686.00;5033063;28;20480;-51
2023/07/21 06:04:05;;;;;;;0.50;0.20;;;;;;;20.12;78.50;99681.72;5040992;28;20530;-51
2023/07/21 06:06:32;;;;;;;0.50;0.20;;;;;;;20.43;76.51;99686.63;5038652;28;20522;-51
2023/07/21 06:08:59;;;;;;;0.40;0.20;;;;;;;20.53;74.60;99679.47;5043592;28;20452;-51
2023/07/21 06:11:26;;;;;;;0.50;0.20;;;;;;;20.59;74.48;99687.97;5045094;28;20507;-53
2023/07/21 06:13:54;;;;;;;0.40;0.20;;;;;;;20.74;73.80;99690.44;5041123;28;20455;-52
2023/07/21 06:16:23;;;;;;;0.40;0.20;;;;;;;20.71;73.37;99686.13;5038891;28;20517;-51
2023/07/21 06:18:51;;;;;;;0.50;0.20;;;;;;;20.68;73.41;99684.50;5042323;28;20467;-51
2023/07/21 06:21:20;;;;;;;0.50;0.20;;;;;;;20.54;73.27;99689.28;5044584;28;20472;-51
2023/07/21 06:23:47;;;;;;;0.50;0.20;;;;;;;20.54;74.21;99689.28;5042110;28;20487;-52
2023/07/21 06:26:14;;;;;;;0.50;0.20;;;;;;;20.59;74.48;99687.09;5033134;28;20454;-51
2023/07/21 06:28:41;;;;;;;0.50;0.20;;;;;;;20.63;73.75;99681.34;5022670;28;20509;-51
2023/07/21 06:31:11;;;;;;;0.50;0.20;;;;;;;20.52;73.20;99689.44;5045188;28;20482;-51
2023/07/21 06:33:38;;;;;;;0.50;0.20;;;;;;;20.63;72.96;99681.34;5043341;28;20439;-51
2023/07/21 06:36:05;;;;;;;0.50;0.20;;;;;;;20.68;73.35;99683.66;5038442;28;20506;-51
2023/07/21 06:38:33;;;;;;;0.50;0.20;;;;;;;20.88;72.50;99682.94;5040660;28;20498;-51
2023/07/21 06:41:01;;;;;;;0.47;0.20;;;;;;;20.90;70.85;99682.78;5045051;28;20486;-52
2023/07/21 06:43:27;;;;;;;0.50;0.20;;;;;;;20.95;69.97;99677.88;5044173;28;20500;-52
2023/07/21 06:45:53;;;;;;;0.50;0.20;;;;;;;20.77;70.45;99674.81;5038106;28;20454;-51
2023/07/21 06:48:20;;;;;;;0.50;0.20;;;;;;;20.73;69.88;99675.19;5039436;28;20543;-51
2023/07/21 06:50:47;;;;;;;0.50;0.20;;;;;;;20.86;68.87;99676.78;5044974;28;21079;-51
2023/07/21 06:53:17;;;;;;;0.50;0.30;;;;;;;20.84;69.36;99678.75;5043988;28;20875;-52
2023/07/21 06:55:46;;;;;;;0.50;0.20;;;;;;;20.75;69.54;99674.09;5025281;28;20522;-51
2023/07/21 06:58:13;;;;;;;0.50;0.20;;;;;;;20.80;68.85;99671.88;5027383;28;20962;-51
2023/07/21 07:00:39;;;;;;;0.50;0.40;;;;;;;20.96;67.54;99679.59;5038152;28;20474;-51
2023/07/21 07:03:06;;;;;;;0.67;0.67;;;;;;;21.06;67.51;99675.16;5046265;28;21019;-51
2023/07/21 07:05:32;;;;;;;0.50;0.20;;;;;;;21.28;67.13;99677.00;5025394;28;20455;-51
2023/07/21 07:07:59;;;;;;;0.50;0.20;;;;;;;21.59;67.13;99683.41;5037864;28;20534;-52
2023/07/21 07:10:25;;;;;;;0.50;0.20;;;;;;;21.45;65.92;99676.44;5045425;28;20999;-51
2023/07/21 07:12:52;;;;;;;0.60;0.50;;;;;;;21.72;65.37;99678.69;5045364;28;20457;-51
2023/07/21 07:15:18;;;;;;;0.47;0.20;;;;;;;21.83;62.93;99685.91;5025079;28;20914;-51
2023/07/21 07:17:45;;;;;;;0.50;0.20;;;;;;;21.81;63.28;99680.63;5038083;28;20475;-51
2023/07/21 07:20:11;;;;;;;0.50;0.20;;;;;;;21.89;62.28;99678.09;5044351;28;20499;-52
2023/07/21 07:22:38;;;;;;;0.50;0.20;;;;;;;22.01;61.97;99687.00;5045003;28;20557;-51
2023/07/21 07:25:05;;;;;;;0.50;0.20;;;;;;;22.03;61.13;99682.31;5038758;28;20450;-52
2023/07/21 07:27:32;;;;;;;0.50;0.20;;;;;;;22.31;61.52;99685.38;5037766;28;20866;-51
2023/07/21 07:29:58;;;;;;;0.50;0.20;;;;;;;22.21;61.41;99681.78;5043839;28;20560;-51
2023/07/21 07:32:25;;;;;;;0.50;0.20;;;;;;;22.23;61.32;99694.19;5045688;28;20454;-51
2023/07/21 07:34:58;;;;;;;0.50;0.20;;;;;;;22.49;59.87;99685.66;5042376;28;20455;-51
2023/07/21 07:37:27;;;;;;;0.50;0.20;;;;;;;22.20;60.00;99686.31;5041257;28;20452;-51
2023/07/21 07:39:54;;;;;;;0.50;0.20;;;;;;;22.17;61.20;99686.59;5046148;28;20471;-51
2023/07/21 07:42:21;;;;;;;0.50;0.20;;;;;;;22.15;62.59;99686.72;5047838;28;20490;-51
2023/07/21 07:44:48;;;;;;;0.50;0.20;;;;;;;22.49;62.43;99686.50;5026457;28;20832;-52
2023/07/21 07:47:14;;;;;;;0.50;0.20;;;;;;;22.76;61.19;99685.94;5040870;28;20471;-51
2023/07/21 07:49:41;;;;;;;0.50;0.20;;;;;;;22.72;61.13;99688.03;5045539;28;20821;-52
2023/07/21 07:52:08;;;;;;;0.50;0.20;;;;;;;22.58;62.58;99692.94;5047915;28;20459;-52
2023/07/21 07:54:35;;;;;;;0.50;0.20;;;;;;;22.82;62.01;99707.06;5034452;28;20455;-52
2023/07/21 07:57:02;;;;;;;0.50;0.20;;;;;;;23.02;59.40;99699.88;5037461;28;20454;-52
2023/07/21 07:59:28;;;;;;;0.50;0.20;;;;;;;22.90;59.66;99699.13;5045395;28;20530;-52
2023/07/21 08:01:57;;;;;;;0.50;0.20;;;;;;;23.05;58.95;99692.34;5032250;28;20565;-52
2023/07/21 08:04:23;;;;;;;0.50;0.20;;;;;;;22.85;55.99;99695.97;5045985;28;20491;-51
2023/07/21 08:06:50;;;;;;;0.50;0.20;;;;;;;22.87;55.77;99695.81;5041157;28;20505;-51
2023/07/21 08:09:17;;;;;;;0.50;0.23;;;;;;;23.12;57.71;99698.06;5042677;28;20874;-51
2023/07/21 08:11:43;;;;;;;0.50;0.20;;;;;;;23.14;57.99;99692.50;5047602;28;20884;-51
2023/07/21 08:14:09;;;;;;;0.50;0.20;;;;;;;22.83;57.23;99700.66;5045723;28;20542;-52
2023/07/21 08:16:38;;;;;;;0.50;0.30;;;;;;;22.55;57.47;99696.78;5040671;28;20486;-51
2023/07/21 08:19:05;;;;;;;0.50;0.30;;;;;;;22.59;56.91;99694.66;5042034;28;20983;-51
2023/07/21 08:21:31;;;;;;;0.50;0.20;;;;;;;22.66;57.69;99696.72;5047516;28;20554;-51
2023/07/21 08:23:58;;;;;;;0.50;0.30;;;;;;;22.62;56.93;99695.28;5046231;28;20541;-51
2023/07/21 08:26:24;;;;;;;0.50;0.20;;;;;;;22.68;55.71;99700.16;5032333;28;20445;-52
2023/07/21 08:28:52;;;;;;;0.50;0.30;;;;;;;22.64;56.39;99700.56;5026228;28;21330;-51
2023/07/21 08:31:19;;;;;;;0.50;0.20;;;;;;;22.68;56.71;99688.44;5047457;28;20454;-51
2023/07/21 08:33:46;;;;;;;0.50;0.20;;;;;;;22.73;55.34;99689.75;5046658;28;20428;-53
2023/07/21 08:36:12;;;;;;;0.50;0.20;;;;;;;22.75;55.18;99681.47;5047677;28;20543;-51
2023/07/21 08:38:39;;;;;;;0.50;0.20;;;;;;;22.86;55.67;99684.13;5046761;28;20554;-52
2023/07/21 08:41:12;;;;;;;0.50;0.30;;;;;;;22.85;54.76;99681.56;5056699;23;20516;-51
2023/07/21 08:43:39;;;;;;;0.50;0.20;;;;;;;22.87;54.68;99688.56;5053290;28;20461;-51
2023/07/21 08:46:08;;;;;;;0.50;0.20;;;;;;;22.83;55.57;99672.72;5053099;28;20911;-51
2023/07/21 08:48:35;;;;;;;0.50;0.30;;;;;;;23.12;52.44;99676.38;5053521;28;20849;-51
2023/07/21 08:51:03;;;;;;;0.50;0.30;;;;;;;23.24;50.26;99679.81;5045513;28;21026;-51
2023/07/21 08:53:30;;;;;;;0.50;0.30;;;;;;;23.40;49.36;99688.25;5045384;28;20815;-50
2023/07/21 08:55:58;;;;;;;0.50;0.20;;;;;;;23.25;49.37;99687.81;5041369;28;20541;-51
2023/07/21 08:58:26;;;;;;;0.50;0.20;;;;;;;23.42;55.25;99691.69;5030757;28;20448;-51
2023/07/21 09:00:56;;;;;;;0.50;0.23;;;;;;;23.52;52.48;99692.56;5044483;28;20887;-51
2023/07/21 09:03:28;;;;;;;0.50;0.20;;;;;;;23.73;52.72;99695.22;5042866;28;20901;-51
2023/07/21 09:05:57;;;;;;;0.50;0.20;;;;;;;24.08;50.37;99693.75;5043792;28;20520;-51
2023/07/21 09:08:29;;;;;;;0.50;0.20;;;;;;;24.07;49.86;99697.47;5039749;28;20928;-51
2023/07/21 09:11:00;;;;;;;0.50;0.30;;;;;;;24.20;50.07;99695.31;5041682;28;20958;-51
2023/07/21 09:13:28;;;;;;;0.50;0.23;;;;;;;24.34;49.01;99697.59;5046463;28;20940;-51
2023/07/21 09:16:02;;;;;;;0.50;0.20;;;;;;;24.03;49.55;99690.63;5028198;28;20556;-51
2023/07/21 09:18:35;;;;;;;0.50;0.20;;;;;;;24.07;51.13;99690.19;5046195;28;20547;-51
2023/07/21 09:21:02;;;;;;;0.50;0.30;;;;;;;24.56;47.85;99687.41;5046030;28;20513;-51
2023/07/21 09:23:29;;;;;;;0.50;0.20;;;;;;;25.05;47.03;99692.50;5041361;28;20577;-51
2023/07/21 09:25:59;;;;;;;0.50;0.20;;;;;;;24.90;46.93;99693.97;5039242;28;20543;-51
2023/07/21 09:28:44;;;;;;;0.50;0.30;;;;;;;24.57;46.16;99689.13;5022288;28;20456;-51
2023/07/21 09:31:15;;;;;;;0.50;0.30;;;;;;;24.66;46.62;99680.91;5046017;28;20467;-51
2023/07/21 09:33:44;;;;;;;0.50;0.23;;;;;;;25.55;45.59;99689.34;5044978;28;20446;-51
2023/07/21 09:36:15;;;;;;;0.50;0.20;;;;;;;25.40;45.19;99690.88;5039518;28;20542;-51
2023/07/21 09:38:44;;;;;;;0.50;0.20;;;;;;;25.05;45.36;99694.38;5039149;28;20452;-51
2023/07/21 09:41:13;;;;;;;0.50;0.20;;;;;;;25.20;44.78;99687.41;5045406;28;20479;-51
2023/07/21 09:43:41;;;;;;;0.50;0.20;;;;;;;25.42;45.70;99688.84;5033253;28;21058;-51
2023/07/21 09:46:09;;;;;;;0.50;0.23;;;;;;;25.45;45.98;99690.41;5044382;28;20539;-51
2023/07/21 09:48:44;;;;;;;0.50;0.23;;;;;;;25.41;44.78;99695.31;5046028;28;20447;-51
2023/07/21 09:51:12;;;;;;;0.50;0.30;;;;;;;25.06;44.99;99680.63;5042124;28;20478;-51
2023/07/21 09:53:40;;;;;;;0.50;0.30;;;;;;;25.00;45.89;99692.13;5033440;28;20542;-51
2023/07/21 09:56:08;;;;;;;0.50;0.23;;;;;;;25.35;45.64;99687.75;5027767;28;20529;-51
2023/07/21 09:59:06;;;;;;;0.50;0.30;;;;;;;25.16;45.19;99696.03;5032334;28;20456;-51
2023/07/21 10:01:33;;;;;;;0.50;0.30;;;;;;;25.13;45.59;99696.34;5020218;28;20967;-51
2023/07/21 10:04:00;;;;;;;0.50;0.20;;;;;;;24.98;45.28;99685.94;5040036;28;20486;-51
2023/07/21 10:06:32;;;;;;;0.50;0.20;;;;;;;25.53;44.67;99693.22;5038818;28;20422;-51
2023/07/21 10:08:59;;;;;;;0.50;0.20;;;;;;;25.32;44.80;99685.34;5043308;28;20506;-51
2023/07/21 10:11:27;;;;;;;0.50;0.20;;;;;;;25.53;45.05;99683.19;5045791;28;20478;-51
2023/07/21 10:13:53;;;;;;;1.03;1.03;;;;;;;25.71;44.28;99691.41;5041534;28;20537;-51
2023/07/21 10:16:21;;;;;;;0.50;0.30;;;;;;;25.99;44.30;99684.00;5038842;28;20892;-51
2023/07/21 10:19:10;;;;;;;0.50;0.20;;;;;;;26.47;42.86;99691.72;5042910;28;20459;-51
2023/07/21 10:21:50;;;;;;;0.50;0.30;;;;;;;26.41;43.08;99695.09;5045233;28;20438;-51
2023/07/21 10:24:28;;;;;;;0.50;0.30;;;;;;;26.60;42.70;99690.44;5045633;28;20551;-51
2023/07/21 10:27:02;;;;;;;0.50;0.20;;;;;;;27.07;41.89;99683.53;5025527;28;20801;-51
2023/07/21 10:29:28;;;;;;;0.50;0.30;;;;;;;27.21;40.75;99686.66;5043116;28;21019;-51
2023/07/21 10:31:57;;;;;;;0.50;0.20;;;;;;;26.99;40.80;99682.59;5042670;28;20452;-51
2023/07/21 10:34:32;;;;;;;0.50;0.30;;;;;;;26.68;41.57;99687.75;5038485;28;20878;-51
2023/07/21 10:37:02;;;;;;;0.50;0.30;;;;;;;26.32;42.49;99690.56;5039836;28;20514;-51
2023/07/21 10:39:31;;;;;;;0.50;0.30;;;;;;;25.93;43.47;99674.59;5045199;28;20847;-51
2023/07/21 10:42:00;;;;;;;0.50;0.30;;;;;;;26.27;42.32;99674.69;5034195;28;20476;-51
2023/07/21 10:44:44;;;;;;;0.50;0.30;;;;;;;26.31;42.75;99683.38;5025565;28;21059;-51
2023/07/21 10:47:19;;;;;;;0.50;0.30;;;;;;;26.31;43.58;99679.81;5038841;28;20855;-51
2023/07/21 10:49:48;;;;;;;0.50;0.30;;;;;;;25.95;43.55;99674.44;5041262;28;20454;-51
2023/07/21 10:52:15;;;;;;;0.50;0.30;;;;;;;25.85;42.18;99669.06;5045084;28;20452;-51
2023/07/21 10:54:41;;;;;;;0.50;0.30;;;;;;;25.86;40.71;99673.50;5031911;28;20471;-51
2023/07/21 10:57:08;;;;;;;0.50;0.30;;;;;;;25.78;41.19;99686.22;5034493;28;20498;-51
2023/07/21 10:59:36;;;;;;;0.50;0.30;;;;;;;25.90;40.65;99679.47;5043513;28;20450;-51
2023/07/21 11:02:06;;;;;;;0.50;0.30;;;;;;;26.18;38.28;99681.09;5028688;28;20514;-51
2023/07/21 11:04:33;;;;;;;0.50;0.30;;;;;;;26.14;38.31;99674.25;5044228;28;20491;-51
2023/07/21 11:07:00;;;;;;;0.50;0.27;;;;;;;25.97;40.25;99677.84;5038371;28;20454;-51
2023/07/21 11:09:28;;;;;;;0.50;0.30;;;;;;;26.29;38.26;99680.81;5042676;28;20478;-51
2023/07/21 11:11:57;;;;;;;0.50;0.30;;;;;;;25.76;39.49;99667.28;5048962;28;20475;-51
2023/07/21 11:14:25;;;;;;;0.50;0.20;;;;;;;26.04;39.83;99676.22;5048409;28;20938;-51
2023/07/21 11:16:57;;;;;;;0.50;0.30;;;;;;;25.39;40.13;99679.16;5048738;28;20426;-51
2023/07/21 11:19:25;;;;;;;0.50;0.30;;;;;;;25.26;39.60;99675.94;5048635;28;20813;-51
2023/07/21 11:21:53;;;;;;;0.50;0.20;;;;;;;25.34;40.19;99677.88;5042776;28;21046;-51
2023/07/21 11:24:28;;;;;;;0.50;0.30;;;;;;;24.96;41.59;99673.50;5041574;28;20999;-51
2023/07/21 11:26:58;;;;;;;0.50;0.27;;;;;;;25.07;42.01;99674.16;5046082;28;20430;-50
2023/07/21 11:29:29;;;;;;;0.50;0.30;;;;;;;24.73;43.17;99681.19;5048467;28;20466;-51
2023/07/21 11:31:55;;;;;;;0.50;0.30;;;;;;;24.96;44.75;99681.66;5045552;28;20537;-51
2023/07/21 11:34:24;;;;;;;0.50;0.23;;;;;;;25.08;44.03;99670.47;5041332;28;20478;-51
2023/07/21 11:36:56;;;;;;;0.50;0.30;;;;;;;24.93;44.08;99673.78;5044539;28;20482;-50
2023/07/21 11:39:22;;;;;;;0.50;0.30;;;;;;;24.86;43.17;99678.97;5048078;28;20920;-50